sensor_id;sensor_type;location;lat;lon;timestamp;temperature;humidity
12839;DHT22;6486;51.034;5.262;2022-09-09T00:09:52;17.80;73.80
12839;DHT22;6486;51.034;5.262;2022-09-09T00:13:11;17.80;73.90
12839;DHT22;6486;51.034;5.262;2022-09-09T00:21:11;17.80;74.20
12839;DHT22;6486;51.034;5.262;2022-09-09T00:23:40;17.70;74.20
12839;DHT22;6486;51.034;5.262;2022-09-09T00:31:29;17.70;74.20
12839;DHT22;6486;51.034;5.262;2022-09-09T00:34:03;17.70;74.30
12839;DHT22;6486;51.034;5.262;2022-09-09T00:36:31;17.70;74.20
12839;DHT22;6486;51.034;5.262;2022-09-09T00:39:01;17.60;74.20
12839;DHT22;6486;51.034;5.262;2022-09-09T00:44:31;17.60;74.20
12839;DHT22;6486;51.034;5.262;2022-09-09T00:47:39;17.60;74.20
12839;DHT22;6486;51.034;5.262;2022-09-09T00:50:39;17.60;74.20
12839;DHT22;6486;51.034;5.262;2022-09-09T00:58:21;17.60;74.30
12839;DHT22;6486;51.034;5.262;2022-09-09T01:00:52;17.50;74.30
12839;DHT22;6486;51.034;5.262;2022-09-09T01:14:05;17.50;74.30
12839;DHT22;6486;51.034;5.262;2022-09-09T01:16:35;17.50;74.30
12839;DHT22;6486;51.034;5.262;2022-09-09T01:19:03;17.40;74.30
12839;DHT22;6486;51.034;5.262;2022-09-09T01:22:00;17.40;74.20
12839;DHT22;6486;51.034;5.262;2022-09-09T01:25:01;17.40;74.30
12839;DHT22;6486;51.034;5.262;2022-09-09T01:27:28;17.40;74.30
12839;DHT22;6486;51.034;5.262;2022-09-09T01:29:54;17.40;74.30
12839;DHT22;6486;51.034;5.262;2022-09-09T01:32:40;17.40;74.40
12839;DHT22;6486;51.034;5.262;2022-09-09T01:35:52;17.40;74.50
12839;DHT22;6486;51.034;5.262;2022-09-09T01:37:57;17.40;74.50
12839;DHT22;6486;51.034;5.262;2022-09-09T01:40:25;17.40;74.50
12839;DHT22;6486;51.034;5.262;2022-09-09T01:42:52;17.40;74.50
12839;DHT22;6486;51.034;5.262;2022-09-09T01:45:18;17.40;74.50
12839;DHT22;6486;51.034;5.262;2022-09-09T01:47:45;17.30;74.40
12839;DHT22;6486;51.034;5.262;2022-09-09T01:50:13;17.30;74.40
12839;DHT22;6486;51.034;5.262;2022-09-09T01:52:39;17.30;74.40
12839;DHT22;6486;51.034;5.262;2022-09-09T01:55:06;17.30;74.50
12839;DHT22;6486;51.034;5.262;2022-09-09T01:57:40;17.30;74.50
12839;DHT22;6486;51.034;5.262;2022-09-09T02:00:12;17.30;74.50
12839;DHT22;6486;51.034;5.262;2022-09-09T02:08:15;17.30;74.50
12839;DHT22;6486;51.034;5.262;2022-09-09T02:10:45;17.20;74.60
12839;DHT22;6486;51.034;5.262;2022-09-09T02:13:14;17.20;74.60
12839;DHT22;6486;51.034;5.262;2022-09-09T02:18:38;17.20;74.60
12839;DHT22;6486;51.034;5.262;2022-09-09T02:21:06;17.20;74.60
12839;DHT22;6486;51.034;5.262;2022-09-09T02:23:33;17.20;74.60
12839;DHT22;6486;51.034;5.262;2022-09-09T02:26:00;17.20;74.60
12839;DHT22;6486;51.034;5.262;2022-09-09T02:28:29;17.20;74.60
12839;DHT22;6486;51.034;5.262;2022-09-09T02:30:56;17.20;74.70
12839;DHT22;6486;51.034;5.262;2022-09-09T02:33:26;17.20;74.70
12839;DHT22;6486;51.034;5.262;2022-09-09T02:35:52;17.20;74.80
12839;DHT22;6486;51.034;5.262;2022-09-09T02:38:21;17.20;74.80
12839;DHT22;6486;51.034;5.262;2022-09-09T02:40:47;17.10;74.70
12839;DHT22;6486;51.034;5.262;2022-09-09T02:43:14;17.10;74.80
12839;DHT22;6486;51.034;5.262;2022-09-09T02:46:08;17.10;74.80
12839;DHT22;6486;51.034;5.262;2022-09-09T02:51:10;17.10;74.80
12839;DHT22;6486;51.034;5.262;2022-09-09T02:56:38;17.10;74.80
12839;DHT22;6486;51.034;5.262;2022-09-09T02:59:05;17.00;74.60
12839;DHT22;6486;51.034;5.262;2022-09-09T03:01:31;17.00;74.70
12839;DHT22;6486;51.034;5.262;2022-09-09T03:03:57;17.00;74.70
12839;DHT22;6486;51.034;5.262;2022-09-09T03:06:22;17.00;74.70
12839;DHT22;6486;51.034;5.262;2022-09-09T03:08:48;16.90;74.60
12839;DHT22;6486;51.034;5.262;2022-09-09T03:11:15;16.90;74.70
12839;DHT22;6486;51.034;5.262;2022-09-09T03:13:41;16.90;74.70
12839;DHT22;6486;51.034;5.262;2022-09-09T03:16:06;16.90;74.80
12839;DHT22;6486;51.034;5.262;2022-09-09T03:18:32;16.90;74.80
12839;DHT22;6486;51.034;5.262;2022-09-09T03:20:58;16.90;75.50
12839;DHT22;6486;51.034;5.262;2022-09-09T03:23:24;16.90;75.00
12839;DHT22;6486;51.034;5.262;2022-09-09T03:25:50;16.90;75.10
12839;DHT22;6486;51.034;5.262;2022-09-09T03:28:17;16.90;75.10
12839;DHT22;6486;51.034;5.262;2022-09-09T03:30:43;16.90;75.20
12839;DHT22;6486;51.034;5.262;2022-09-09T03:33:08;16.90;75.90
12839;DHT22;6486;51.034;5.262;2022-09-09T03:35:34;16.90;75.40
12839;DHT22;6486;51.034;5.262;2022-09-09T03:37:59;16.90;75.50
12839;DHT22;6486;51.034;5.262;2022-09-09T03:40:26;16.90;75.70
12839;DHT22;6486;51.034;5.262;2022-09-09T03:42:52;17.00;75.80
12839;DHT22;6486;51.034;5.262;2022-09-09T03:45:18;17.00;75.90
12839;DHT22;6486;51.034;5.262;2022-09-09T03:47:43;17.00;75.90
12839;DHT22;6486;51.034;5.262;2022-09-09T03:50:10;17.00;75.90
12839;DHT22;6486;51.034;5.262;2022-09-09T03:52:40;17.10;76.10
12839;DHT22;6486;51.034;5.262;2022-09-09T03:55:07;17.10;76.10
12839;DHT22;6486;51.034;5.262;2022-09-09T03:57:33;17.10;76.20
12839;DHT22;6486;51.034;5.262;2022-09-09T04:00:02;17.10;76.20
12839;DHT22;6486;51.034;5.262;2022-09-09T04:02:28;17.10;76.30
12839;DHT22;6486;51.034;5.262;2022-09-09T04:04:54;17.10;76.20
12839;DHT22;6486;51.034;5.262;2022-09-09T04:07:19;17.10;76.30
12839;DHT22;6486;51.034;5.262;2022-09-09T04:09:45;17.10;76.40
12839;DHT22;6486;51.034;5.262;2022-09-09T04:12:11;17.10;76.40
12839;DHT22;6486;51.034;5.262;2022-09-09T04:14:38;17.10;76.30
12839;DHT22;6486;51.034;5.262;2022-09-09T04:17:04;17.10;76.30
12839;DHT22;6486;51.034;5.262;2022-09-09T04:19:32;17.10;76.30
12839;DHT22;6486;51.034;5.262;2022-09-09T04:21:58;17.10;76.30
12839;DHT22;6486;51.034;5.262;2022-09-09T04:24:24;17.10;76.30
12839;DHT22;6486;51.034;5.262;2022-09-09T04:26:50;17.10;76.30
12839;DHT22;6486;51.034;5.262;2022-09-09T04:29:15;17.10;76.30
12839;DHT22;6486;51.034;5.262;2022-09-09T04:31:42;17.10;76.40
12839;DHT22;6486;51.034;5.262;2022-09-09T04:34:08;17.10;76.40
12839;DHT22;6486;51.034;5.262;2022-09-09T04:36:34;17.10;76.40
12839;DHT22;6486;51.034;5.262;2022-09-09T04:39:00;17.00;76.40
12839;DHT22;6486;51.034;5.262;2022-09-09T04:41:27;17.00;76.40
12839;DHT22;6486;51.034;5.262;2022-09-09T04:43:52;17.00;76.40
12839;DHT22;6486;51.034;5.262;2022-09-09T04:46:19;17.00;76.50
12839;DHT22;6486;51.034;5.262;2022-09-09T04:48:45;17.00;76.50
12839;DHT22;6486;51.034;5.262;2022-09-09T04:51:13;17.00;76.60
12839;DHT22;6486;51.034;5.262;2022-09-09T04:53:39;17.00;76.60
12839;DHT22;6486;51.034;5.262;2022-09-09T04:56:14;17.00;77.40
12839;DHT22;6486;51.034;5.262;2022-09-09T04:58:40;16.90;76.60
12839;DHT22;6486;51.034;5.262;2022-09-09T05:01:17;17.00;76.70
12839;DHT22;6486;51.034;5.262;2022-09-09T05:03:43;16.90;76.70
12839;DHT22;6486;51.034;5.262;2022-09-09T05:06:14;16.90;76.80
12839;DHT22;6486;51.034;5.262;2022-09-09T05:08:42;16.90;77.40
12839;DHT22;6486;51.034;5.262;2022-09-09T05:11:34;16.90;76.80
12839;DHT22;6486;51.034;5.262;2022-09-09T05:14:02;16.90;76.80
12839;DHT22;6486;51.034;5.262;2022-09-09T05:16:28;16.90;76.80
12839;DHT22;6486;51.034;5.262;2022-09-09T05:18:55;16.90;76.90
12839;DHT22;6486;51.034;5.262;2022-09-09T05:21:23;16.90;76.90
12839;DHT22;6486;51.034;5.262;2022-09-09T05:23:49;16.90;76.90
12839;DHT22;6486;51.034;5.262;2022-09-09T05:26:21;16.80;76.90
12839;DHT22;6486;51.034;5.262;2022-09-09T05:28:47;16.90;77.00
12839;DHT22;6486;51.034;5.262;2022-09-09T05:31:14;16.90;77.00
12839;DHT22;6486;51.034;5.262;2022-09-09T05:33:41;16.90;77.00
12839;DHT22;6486;51.034;5.262;2022-09-09T05:36:11;16.90;77.10
12839;DHT22;6486;51.034;5.262;2022-09-09T05:38:39;16.90;77.10
12839;DHT22;6486;51.034;5.262;2022-09-09T05:41:05;16.90;77.80
12839;DHT22;6486;51.034;5.262;2022-09-09T05:43:31;16.90;77.90
12839;DHT22;6486;51.034;5.262;2022-09-09T05:46:01;16.90;77.20
12839;DHT22;6486;51.034;5.262;2022-09-09T05:48:31;17.00;77.30
12839;DHT22;6486;51.034;5.262;2022-09-09T05:50:58;17.00;77.30
12839;DHT22;6486;51.034;5.262;2022-09-09T05:53:24;17.00;77.30
12839;DHT22;6486;51.034;5.262;2022-09-09T05:55:50;17.00;77.30
12839;DHT22;6486;51.034;5.262;2022-09-09T05:58:16;17.00;77.30
12839;DHT22;6486;51.034;5.262;2022-09-09T06:00:42;17.00;77.30
12839;DHT22;6486;51.034;5.262;2022-09-09T06:03:11;17.10;77.30
12839;DHT22;6486;51.034;5.262;2022-09-09T06:05:36;17.10;77.30
12839;DHT22;6486;51.034;5.262;2022-09-09T06:08:02;17.10;77.10
12839;DHT22;6486;51.034;5.262;2022-09-09T06:10:28;17.10;77.00
12839;DHT22;6486;51.034;5.262;2022-09-09T06:12:54;17.10;77.00
12839;DHT22;6486;51.034;5.262;2022-09-09T06:15:21;17.10;77.60
12839;DHT22;6486;51.034;5.262;2022-09-09T06:17:46;17.20;77.00
12839;DHT22;6486;51.034;5.262;2022-09-09T06:20:12;17.20;77.00
12839;DHT22;6486;51.034;5.262;2022-09-09T06:22:42;17.20;77.60
12839;DHT22;6486;51.034;5.262;2022-09-09T06:25:08;17.30;77.00
12839;DHT22;6486;51.034;5.262;2022-09-09T06:27:34;17.30;76.80
12839;DHT22;6486;51.034;5.262;2022-09-09T06:30:00;17.30;76.80
12839;DHT22;6486;51.034;5.262;2022-09-09T06:32:26;17.40;76.90
12839;DHT22;6486;51.034;5.262;2022-09-09T06:34:52;17.40;76.80
12839;DHT22;6486;51.034;5.262;2022-09-09T06:37:17;17.50;76.80
12839;DHT22;6486;51.034;5.262;2022-09-09T06:39:44;17.60;76.60
12839;DHT22;6486;51.034;5.262;2022-09-09T06:42:09;17.60;76.40
12839;DHT22;6486;51.034;5.262;2022-09-09T06:44:35;17.70;76.30
12839;DHT22;6486;51.034;5.262;2022-09-09T06:47:01;17.80;76.20
12839;DHT22;6486;51.034;5.262;2022-09-09T06:49:27;17.90;76.10
12839;DHT22;6486;51.034;5.262;2022-09-09T06:51:52;18.00;76.00
12839;DHT22;6486;51.034;5.262;2022-09-09T06:54:19;18.10;75.90
12839;DHT22;6486;51.034;5.262;2022-09-09T06:56:45;18.30;75.70
12839;DHT22;6486;51.034;5.262;2022-09-09T06:59:11;18.30;75.60
12839;DHT22;6486;51.034;5.262;2022-09-09T07:01:42;18.30;76.30
12839;DHT22;6486;51.034;5.262;2022-09-09T07:04:16;18.30;75.50
12839;DHT22;6486;51.034;5.262;2022-09-09T07:06:44;18.30;75.40
12839;DHT22;6486;51.034;5.262;2022-09-09T07:09:13;18.30;75.20
12839;DHT22;6486;51.034;5.262;2022-09-09T07:11:43;18.30;75.10
12839;DHT22;6486;51.034;5.262;2022-09-09T07:14:09;18.30;74.90
12839;DHT22;6486;51.034;5.262;2022-09-09T07:16:42;18.40;75.50
12839;DHT22;6486;51.034;5.262;2022-09-09T07:19:08;18.30;74.50
12839;DHT22;6486;51.034;5.262;2022-09-09T07:21:34;18.30;74.50
12839;DHT22;6486;51.034;5.262;2022-09-09T07:24:00;18.30;74.60
12839;DHT22;6486;51.034;5.262;2022-09-09T07:26:28;18.30;74.50
12839;DHT22;6486;51.034;5.262;2022-09-09T07:28:54;18.30;74.30
12839;DHT22;6486;51.034;5.262;2022-09-09T07:31:27;18.40;74.30
12839;DHT22;6486;51.034;5.262;2022-09-09T07:33:53;18.40;74.10
12839;DHT22;6486;51.034;5.262;2022-09-09T07:36:21;18.50;74.00
12839;DHT22;6486;51.034;5.262;2022-09-09T07:38:49;18.50;73.90
12839;DHT22;6486;51.034;5.262;2022-09-09T07:41:22;18.50;73.70
12839;DHT22;6486;51.034;5.262;2022-09-09T07:43:48;18.60;73.70
12839;DHT22;6486;51.034;5.262;2022-09-09T07:46:16;18.70;73.70
12839;DHT22;6486;51.034;5.262;2022-09-09T07:48:46;18.80;73.30
12839;DHT22;6486;51.034;5.262;2022-09-09T07:51:18;18.80;73.20
12839;DHT22;6486;51.034;5.262;2022-09-09T07:53:46;18.80;73.10
12839;DHT22;6486;51.034;5.262;2022-09-09T07:56:16;18.80;72.90
12839;DHT22;6486;51.034;5.262;2022-09-09T07:58:44;18.70;72.70
12839;DHT22;6486;51.034;5.262;2022-09-09T08:01:14;18.70;72.70
12839;DHT22;6486;51.034;5.262;2022-09-09T08:03:40;18.60;72.60
12839;DHT22;6486;51.034;5.262;2022-09-09T08:06:07;18.60;72.70
12839;DHT22;6486;51.034;5.262;2022-09-09T08:08:34;18.60;72.70
12839;DHT22;6486;51.034;5.262;2022-09-09T08:11:05;18.60;72.60
12839;DHT22;6486;51.034;5.262;2022-09-09T08:13:36;18.60;72.50
12839;DHT22;6486;51.034;5.262;2022-09-09T08:16:13;18.50;72.40
12839;DHT22;6486;51.034;5.262;2022-09-09T08:18:40;18.50;72.40
12839;DHT22;6486;51.034;5.262;2022-09-09T08:21:14;18.50;72.40
12839;DHT22;6486;51.034;5.262;2022-09-09T08:23:41;18.60;73.20
12839;DHT22;6486;51.034;5.262;2022-09-09T08:28:36;18.60;72.20
12839;DHT22;6486;51.034;5.262;2022-09-09T08:31:30;18.70;72.10
12839;DHT22;6486;51.034;5.262;2022-09-09T08:33:58;18.70;72.10
12839;DHT22;6486;51.034;5.262;2022-09-09T08:36:32;18.70;72.00
12839;DHT22;6486;51.034;5.262;2022-09-09T08:39:02;18.70;71.80
12839;DHT22;6486;51.034;5.262;2022-09-09T08:52:29;18.70;71.80
12839;DHT22;6486;51.034;5.262;2022-09-09T08:55:03;18.70;71.80
12839;DHT22;6486;51.034;5.262;2022-09-09T08:57:31;18.70;71.80
12839;DHT22;6486;51.034;5.262;2022-09-09T08:59:58;18.70;71.80
12839;DHT22;6486;51.034;5.262;2022-09-09T09:05:33;18.80;71.80
12839;DHT22;6486;51.034;5.262;2022-09-09T09:08:31;18.80;71.80
12839;DHT22;6486;51.034;5.262;2022-09-09T09:10:59;18.80;71.60
12839;DHT22;6486;51.034;5.262;2022-09-09T09:14:01;18.90;71.60
12839;DHT22;6486;51.034;5.262;2022-09-09T09:16:36;18.90;71.50
12839;DHT22;6486;51.034;5.262;2022-09-09T09:19:04;18.90;71.50
12839;DHT22;6486;51.034;5.262;2022-09-09T09:21:40;18.90;71.50
12839;DHT22;6486;51.034;5.262;2022-09-09T09:24:35;19.00;71.30
12839;DHT22;6486;51.034;5.262;2022-09-09T09:27:13;19.00;71.20
12839;DHT22;6486;51.034;5.262;2022-09-09T09:29:40;19.10;72.00
12839;DHT22;6486;51.034;5.262;2022-09-09T09:32:11;19.20;71.20
12839;DHT22;6486;51.034;5.262;2022-09-09T09:34:39;19.30;71.00
12839;DHT22;6486;51.034;5.262;2022-09-09T09:37:26;19.40;70.70
12839;DHT22;6486;51.034;5.262;2022-09-09T09:39:53;19.40;70.50
12839;DHT22;6486;51.034;5.262;2022-09-09T09:42:19;19.40;70.70
12839;DHT22;6486;51.034;5.262;2022-09-09T09:44:45;19.40;69.90
12839;DHT22;6486;51.034;5.262;2022-09-09T09:47:15;19.30;70.00
12839;DHT22;6486;51.034;5.262;2022-09-09T09:49:55;19.30;70.10
12839;DHT22;6486;51.034;5.262;2022-09-09T09:52:32;19.20;70.10
12839;DHT22;6486;51.034;5.262;2022-09-09T09:55:03;19.20;70.30
12839;DHT22;6486;51.034;5.262;2022-09-09T09:57:30;19.20;70.40
12839;DHT22;6486;51.034;5.262;2022-09-09T10:00:15;19.20;70.60
12839;DHT22;6486;51.034;5.262;2022-09-09T10:02:44;19.10;70.70
12839;DHT22;6486;51.034;5.262;2022-09-09T10:05:15;19.00;70.90
12839;DHT22;6486;51.034;5.262;2022-09-09T10:07:42;18.90;71.40
12839;DHT22;6486;51.034;5.262;2022-09-09T10:10:37;18.80;71.70
12839;DHT22;6486;51.034;5.262;2022-09-09T10:13:23;18.80;72.30
12839;DHT22;6486;51.034;5.262;2022-09-09T10:18:36;18.60;72.80
12839;DHT22;6486;51.034;5.262;2022-09-09T10:29:56;18.30;74.00
12839;DHT22;6486;51.034;5.262;2022-09-09T10:43:24;18.20;75.30
12839;DHT22;6486;51.034;5.262;2022-09-09T10:52:18;18.10;76.30
12839;DHT22;6486;51.034;5.262;2022-09-09T10:55:24;18.20;76.60
12839;DHT22;6486;51.034;5.262;2022-09-09T10:57:53;18.30;76.60
12839;DHT22;6486;51.034;5.262;2022-09-09T11:00:21;18.40;76.50
12839;DHT22;6486;51.034;5.262;2022-09-09T11:02:57;18.50;76.60
12839;DHT22;6486;51.034;5.262;2022-09-09T11:08:14;18.60;76.80
12839;DHT22;6486;51.034;5.262;2022-09-09T11:10:53;18.60;76.80
12839;DHT22;6486;51.034;5.262;2022-09-09T11:13:44;18.70;77.00
12839;DHT22;6486;51.034;5.262;2022-09-09T11:18:41;18.70;76.90
12839;DHT22;6486;51.034;5.262;2022-09-09T11:21:16;18.70;77.00
12839;DHT22;6486;51.034;5.262;2022-09-09T11:23:50;18.80;77.30
12839;DHT22;6486;51.034;5.262;2022-09-09T11:27:05;18.80;77.30
12839;DHT22;6486;51.034;5.262;2022-09-09T11:32:27;18.90;77.40
12839;DHT22;6486;51.034;5.262;2022-09-09T11:40:20;19.10;77.40
12839;DHT22;6486;51.034;5.262;2022-09-09T11:42:47;19.00;77.40
12839;DHT22;6486;51.034;5.262;2022-09-09T11:45:26;19.10;77.40
12839;DHT22;6486;51.034;5.262;2022-09-09T11:47:58;19.10;77.40
12839;DHT22;6486;51.034;5.262;2022-09-09T11:52:50;19.10;77.60
12839;DHT22;6486;51.034;5.262;2022-09-09T11:55:33;19.10;77.50
12839;DHT22;6486;51.034;5.262;2022-09-09T11:58:01;19.20;77.50
12839;DHT22;6486;51.034;5.262;2022-09-09T12:00:33;19.20;77.30
12839;DHT22;6486;51.034;5.262;2022-09-09T12:02:59;19.20;77.20
12839;DHT22;6486;51.034;5.262;2022-09-09T12:05:36;19.30;77.30
12839;DHT22;6486;51.034;5.262;2022-09-09T12:08:03;19.30;77.50
12839;DHT22;6486;51.034;5.262;2022-09-09T12:10:31;19.30;77.50
12839;DHT22;6486;51.034;5.262;2022-09-09T12:13:22;19.30;77.50
12839;DHT22;6486;51.034;5.262;2022-09-09T12:15:57;19.20;77.30
12839;DHT22;6486;51.034;5.262;2022-09-09T12:23:55;19.20;77.50
12839;DHT22;6486;51.034;5.262;2022-09-09T12:26:34;19.20;77.50
12839;DHT22;6486;51.034;5.262;2022-09-09T12:29:26;19.30;77.50
12839;DHT22;6486;51.034;5.262;2022-09-09T12:32:10;19.40;77.50
12839;DHT22;6486;51.034;5.262;2022-09-09T12:34:49;19.50;77.60
12839;DHT22;6486;51.034;5.262;2022-09-09T12:42:22;19.70;76.70
12839;DHT22;6486;51.034;5.262;2022-09-09T12:44:56;19.80;76.50
12839;DHT22;6486;51.034;5.262;2022-09-09T12:52:42;20.30;76.10
12839;DHT22;6486;51.034;5.262;2022-09-09T12:55:17;20.30;76.00
12839;DHT22;6486;51.034;5.262;2022-09-09T12:57:43;20.40;75.00
12839;DHT22;6486;51.034;5.262;2022-09-09T13:02:59;20.30;75.00
12839;DHT22;6486;51.034;5.262;2022-09-09T13:05:28;20.30;75.00
12839;DHT22;6486;51.034;5.262;2022-09-09T13:08:06;20.20;74.50
12839;DHT22;6486;51.034;5.262;2022-09-09T13:10:36;20.10;74.50
12839;DHT22;6486;51.034;5.262;2022-09-09T13:13:14;20.10;74.40
12839;DHT22;6486;51.034;5.262;2022-09-09T13:15:52;20.10;74.30
12839;DHT22;6486;51.034;5.262;2022-09-09T13:18:28;20.20;73.60
12839;DHT22;6486;51.034;5.262;2022-09-09T13:20:55;20.30;73.60
12839;DHT22;6486;51.034;5.262;2022-09-09T13:23:27;20.30;73.40
12839;DHT22;6486;51.034;5.262;2022-09-09T13:26:04;20.30;73.10
12839;DHT22;6486;51.034;5.262;2022-09-09T13:28:31;20.30;73.00
12839;DHT22;6486;51.034;5.262;2022-09-09T13:31:03;20.30;72.60
12839;DHT22;6486;51.034;5.262;2022-09-09T13:33:37;20.30;72.60
12839;DHT22;6486;51.034;5.262;2022-09-09T13:36:06;20.50;72.30
12839;DHT22;6486;51.034;5.262;2022-09-09T13:38:37;20.60;72.40
12839;DHT22;6486;51.034;5.262;2022-09-09T13:41:04;20.70;72.20
12839;DHT22;6486;51.034;5.262;2022-09-09T13:43:42;20.80;72.40
12839;DHT22;6486;51.034;5.262;2022-09-09T13:46:35;20.90;72.40
12839;DHT22;6486;51.034;5.262;2022-09-09T13:49:03;21.00;72.40
12839;DHT22;6486;51.034;5.262;2022-09-09T13:51:45;21.00;72.10
12839;DHT22;6486;51.034;5.262;2022-09-09T13:54:17;21.00;72.00
12839;DHT22;6486;51.034;5.262;2022-09-09T13:56:48;21.10;72.00
12839;DHT22;6486;51.034;5.262;2022-09-09T13:59:19;21.10;71.40
12839;DHT22;6486;51.034;5.262;2022-09-09T14:01:49;21.10;70.70
12839;DHT22;6486;51.034;5.262;2022-09-09T14:04:15;21.10;71.00
12839;DHT22;6486;51.034;5.262;2022-09-09T14:06:41;21.10;70.40
12839;DHT22;6486;51.034;5.262;2022-09-09T14:09:11;21.10;70.10
12839;DHT22;6486;51.034;5.262;2022-09-09T14:11:37;21.10;69.80
12839;DHT22;6486;51.034;5.262;2022-09-09T14:14:03;21.20;69.60
12839;DHT22;6486;51.034;5.262;2022-09-09T14:16:28;21.20;69.60
12839;DHT22;6486;51.034;5.262;2022-09-09T14:18:54;21.30;69.90
12839;DHT22;6486;51.034;5.262;2022-09-09T14:21:24;21.30;69.40
12839;DHT22;6486;51.034;5.262;2022-09-09T14:23:50;21.30;68.60
12839;DHT22;6486;51.034;5.262;2022-09-09T14:26:15;21.30;68.70
12839;DHT22;6486;51.034;5.262;2022-09-09T14:28:41;21.40;68.60
12839;DHT22;6486;51.034;5.262;2022-09-09T14:31:07;21.40;67.60
12839;DHT22;6486;51.034;5.262;2022-09-09T14:33:33;21.40;67.40
12839;DHT22;6486;51.034;5.262;2022-09-09T14:36:02;21.60;67.70
12839;DHT22;6486;51.034;5.262;2022-09-09T14:38:33;21.70;67.30
12839;DHT22;6486;51.034;5.262;2022-09-09T14:41:00;22.00;66.80
12839;DHT22;6486;51.034;5.262;2022-09-09T14:43:28;22.00;66.60
12839;DHT22;6486;51.034;5.262;2022-09-09T14:45:55;22.20;66.30
12839;DHT22;6486;51.034;5.262;2022-09-09T14:48:21;22.40;65.80
12839;DHT22;6486;51.034;5.262;2022-09-09T14:50:46;22.60;64.80
12839;DHT22;6486;51.034;5.262;2022-09-09T14:53:12;22.80;64.30
12839;DHT22;6486;51.034;5.262;2022-09-09T14:55:38;23.00;64.10
12839;DHT22;6486;51.034;5.262;2022-09-09T14:58:04;22.90;62.80
12839;DHT22;6486;51.034;5.262;2022-09-09T15:00:30;22.80;62.10
12839;DHT22;6486;51.034;5.262;2022-09-09T15:02:56;22.80;63.20
12839;DHT22;6486;51.034;5.262;2022-09-09T15:05:22;22.90;62.50
12839;DHT22;6486;51.034;5.262;2022-09-09T15:07:49;22.90;62.20
12839;DHT22;6486;51.034;5.262;2022-09-09T15:10:15;22.90;62.20
12839;DHT22;6486;51.034;5.262;2022-09-09T15:12:42;22.90;62.20
12839;DHT22;6486;51.034;5.262;2022-09-09T15:15:09;22.80;62.30
12839;DHT22;6486;51.034;5.262;2022-09-09T15:17:35;22.80;62.60
12839;DHT22;6486;51.034;5.262;2022-09-09T15:20:02;22.80;62.90
12839;DHT22;6486;51.034;5.262;2022-09-09T15:22:28;22.80;63.10
12839;DHT22;6486;51.034;5.262;2022-09-09T15:24:53;22.70;62.10
12839;DHT22;6486;51.034;5.262;2022-09-09T15:27:19;22.70;62.20
12839;DHT22;6486;51.034;5.262;2022-09-09T15:29:45;22.60;62.50
12839;DHT22;6486;51.034;5.262;2022-09-09T15:32:10;22.60;62.80
12839;DHT22;6486;51.034;5.262;2022-09-09T15:34:36;22.50;62.60
12839;DHT22;6486;51.034;5.262;2022-09-09T15:37:02;22.40;62.40
12839;DHT22;6486;51.034;5.262;2022-09-09T15:39:27;22.60;63.10
12839;DHT22;6486;51.034;5.262;2022-09-09T15:41:53;22.90;62.60
12839;DHT22;6486;51.034;5.262;2022-09-09T15:44:19;23.40;62.60
12839;DHT22;6486;51.034;5.262;2022-09-09T15:46:48;24.10;61.50
12839;DHT22;6486;51.034;5.262;2022-09-09T15:49:18;24.80;59.80
12839;DHT22;6486;51.034;5.262;2022-09-09T15:51:46;25.30;57.30
12839;DHT22;6486;51.034;5.262;2022-09-09T15:54:15;25.30;56.60
12839;DHT22;6486;51.034;5.262;2022-09-09T15:56:46;25.00;56.60
12839;DHT22;6486;51.034;5.262;2022-09-09T15:59:14;25.00;56.90
12839;DHT22;6486;51.034;5.262;2022-09-09T16:01:40;25.20;56.20
12839;DHT22;6486;51.034;5.262;2022-09-09T16:04:07;24.80;56.40
12839;DHT22;6486;51.034;5.262;2022-09-09T16:06:33;24.70;56.30
12839;DHT22;6486;51.034;5.262;2022-09-09T16:08:59;24.30;56.90
12839;DHT22;6486;51.034;5.262;2022-09-09T16:11:34;23.90;57.40
12839;DHT22;6486;51.034;5.262;2022-09-09T16:14:03;23.50;58.00
12839;DHT22;6486;51.034;5.262;2022-09-09T16:16:29;23.30;58.50
12839;DHT22;6486;51.034;5.262;2022-09-09T16:18:57;23.00;59.00
12839;DHT22;6486;51.034;5.262;2022-09-09T16:21:27;22.70;59.30
12839;DHT22;6486;51.034;5.262;2022-09-09T16:23:57;22.60;60.00
12839;DHT22;6486;51.034;5.262;2022-09-09T16:26:25;22.70;60.00
12839;DHT22;6486;51.034;5.262;2022-09-09T16:28:51;22.60;59.70
12839;DHT22;6486;51.034;5.262;2022-09-09T16:31:21;22.30;60.00
12839;DHT22;6486;51.034;5.262;2022-09-09T16:33:47;22.10;59.80
12839;DHT22;6486;51.034;5.262;2022-09-09T16:36:16;21.90;60.00
12839;DHT22;6486;51.034;5.262;2022-09-09T16:38:42;21.70;60.40
12839;DHT22;6486;51.034;5.262;2022-09-09T16:41:09;21.60;60.80
12839;DHT22;6486;51.034;5.262;2022-09-09T16:43:36;21.50;60.90
12839;DHT22;6486;51.034;5.262;2022-09-09T16:46:03;21.40;61.10
12839;DHT22;6486;51.034;5.262;2022-09-09T16:48:33;21.30;61.40
12839;DHT22;6486;51.034;5.262;2022-09-09T16:51:06;21.30;61.50
12839;DHT22;6486;51.034;5.262;2022-09-09T16:53:33;21.20;61.60
12839;DHT22;6486;51.034;5.262;2022-09-09T16:56:05;21.20;61.80
12839;DHT22;6486;51.034;5.262;2022-09-09T16:58:31;21.10;62.10
12839;DHT22;6486;51.034;5.262;2022-09-09T17:01:03;21.00;62.50
12839;DHT22;6486;51.034;5.262;2022-09-09T17:03:30;21.00;63.00
12839;DHT22;6486;51.034;5.262;2022-09-09T17:05:57;20.90;63.10
12839;DHT22;6486;51.034;5.262;2022-09-09T17:08:23;20.90;63.00
12839;DHT22;6486;51.034;5.262;2022-09-09T17:10:49;20.80;62.50
12839;DHT22;6486;51.034;5.262;2022-09-09T17:13:15;20.80;62.60
12839;DHT22;6486;51.034;5.262;2022-09-09T17:15:43;20.70;62.40
12839;DHT22;6486;51.034;5.262;2022-09-09T17:18:10;20.60;62.50
12839;DHT22;6486;51.034;5.262;2022-09-09T17:20:40;20.60;62.60
12839;DHT22;6486;51.034;5.262;2022-09-09T17:23:07;20.50;63.00
12839;DHT22;6486;51.034;5.262;2022-09-09T17:25:33;20.40;63.30
12839;DHT22;6486;51.034;5.262;2022-09-09T17:27:59;20.30;63.50
12839;DHT22;6486;51.034;5.262;2022-09-09T17:30:26;20.30;63.60
12839;DHT22;6486;51.034;5.262;2022-09-09T17:32:52;20.20;63.70
12839;DHT22;6486;51.034;5.262;2022-09-09T17:35:18;20.20;64.00
12839;DHT22;6486;51.034;5.262;2022-09-09T17:37:44;20.20;64.30
12839;DHT22;6486;51.034;5.262;2022-09-09T17:40:10;20.10;64.40
12839;DHT22;6486;51.034;5.262;2022-09-09T17:42:36;20.10;64.70
12839;DHT22;6486;51.034;5.262;2022-09-09T17:45:02;20.00;65.00
12839;DHT22;6486;51.034;5.262;2022-09-09T17:47:28;19.90;65.40
12839;DHT22;6486;51.034;5.262;2022-09-09T17:49:56;19.80;65.80
12839;DHT22;6486;51.034;5.262;2022-09-09T17:52:21;19.80;66.30
12839;DHT22;6486;51.034;5.262;2022-09-09T17:54:48;19.80;66.60
12839;DHT22;6486;51.034;5.262;2022-09-09T17:57:15;19.70;66.90
12839;DHT22;6486;51.034;5.262;2022-09-09T17:59:42;19.60;67.10
12839;DHT22;6486;51.034;5.262;2022-09-09T18:02:10;19.60;67.40
12839;DHT22;6486;51.034;5.262;2022-09-09T18:04:36;19.50;67.60
12839;DHT22;6486;51.034;5.262;2022-09-09T18:07:02;19.50;67.90
12839;DHT22;6486;51.034;5.262;2022-09-09T18:09:27;19.40;68.10
12839;DHT22;6486;51.034;5.262;2022-09-09T18:11:56;19.40;68.50
12839;DHT22;6486;51.034;5.262;2022-09-09T18:14:28;19.30;69.60